sensor_id;sensor_type;location;lat;lon;timestamp;temperature;humidity
22680;DHT22;11507;44.858;10.374;2023-12-29T00:01:53;8.90;99.90
22680;DHT22;11507;44.858;10.374;2023-12-29T00:04:20;8.90;99.90
22680;DHT22;11507;44.858;10.374;2023-12-29T00:06:46;8.90;99.90
22680;DHT22;11507;44.858;10.374;2023-12-29T00:09:11;8.90;99.90
22680;DHT22;11507;44.858;10.374;2023-12-29T00:11:38;8.90;99.90
22680;DHT22;11507;44.858;10.374;2023-12-29T00:14:04;8.90;99.90
22680;DHT22;11507;44.858;10.374;2023-12-29T00:16:31;8.90;99.90
22680;DHT22;11507;44.858;10.374;2023-12-29T00:18:57;8.90;99.90
22680;DHT22;11507;44.858;10.374;2023-12-29T00:21:23;8.90;99.90
22680;DHT22;11507;44.858;10.374;2023-12-29T00:23:49;8.90;99.90
22680;DHT22;11507;44.858;10.374;2023-12-29T00:26:18;8.80;99.90
22680;DHT22;11507;44.858;10.374;2023-12-29T00:28:51;8.90;99.90
22680;DHT22;11507;44.858;10.374;2023-12-29T00:31:17;8.80;99.90
22680;DHT22;11507;44.858;10.374;2023-12-29T00:33:43;8.80;99.90
22680;DHT22;11507;44.858;10.374;2023-12-29T00:36:16;8.80;99.90
22680;DHT22;11507;44.858;10.374;2023-12-29T00:38:42;8.80;99.90
22680;DHT22;11507;44.858;10.374;2023-12-29T00:41:08;8.80;99.90
22680;DHT22;11507;44.858;10.374;2023-12-29T00:43:34;8.80;99.90
22680;DHT22;11507;44.858;10.374;2023-12-29T00:46:01;8.80;99.90
22680;DHT22;11507;44.858;10.374;2023-12-29T00:48:27;8.80;99.90
22680;DHT22;11507;44.858;10.374;2023-12-29T00:50:53;8.80;99.90
22680;DHT22;11507;44.858;10.374;2023-12-29T00:53:19;8.80;99.90
22680;DHT22;11507;44.858;10.374;2023-12-29T00:55:45;8.80;99.90
22680;DHT22;11507;44.858;10.374;2023-12-29T00:58:11;8.80;99.90
22680;DHT22;11507;44.858;10.374;2023-12-29T01:00:37;8.90;99.90
22680;DHT22;11507;44.858;10.374;2023-12-29T01:03:02;8.90;99.90
22680;DHT22;11507;44.858;10.374;2023-12-29T01:05:28;8.90;99.90
22680;DHT22;11507;44.858;10.374;2023-12-29T01:07:55;8.90;99.90
22680;DHT22;11507;44.858;10.374;2023-12-29T01:10:21;8.80;99.90
22680;DHT22;11507;44.858;10.374;2023-12-29T01:12:47;8.80;99.90
22680;DHT22;11507;44.858;10.374;2023-12-29T01:15:14;8.80;99.90
22680;DHT22;11507;44.858;10.374;2023-12-29T01:17:40;8.80;99.90
22680;DHT22;11507;44.858;10.374;2023-12-29T01:20:06;8.80;99.90
22680;DHT22;11507;44.858;10.374;2023-12-29T01:22:33;8.90;99.90
22680;DHT22;11507;44.858;10.374;2023-12-29T01:24:59;8.80;99.90
22680;DHT22;11507;44.858;10.374;2023-12-29T01:27:26;8.80;99.90
22680;DHT22;11507;44.858;10.374;2023-12-29T01:29:53;8.80;99.90
22680;DHT22;11507;44.858;10.374;2023-12-29T01:32:19;8.70;99.90
22680;DHT22;11507;44.858;10.374;2023-12-29T01:34:45;8.70;99.90
22680;DHT22;11507;44.858;10.374;2023-12-29T01:37:11;8.70;99.90
22680;DHT22;11507;44.858;10.374;2023-12-29T01:39:36;8.70;99.90
22680;DHT22;11507;44.858;10.374;2023-12-29T01:42:03;8.70;99.90
22680;DHT22;11507;44.858;10.374;2023-12-29T01:44:29;8.70;99.90
22680;DHT22;11507;44.858;10.374;2023-12-29T01:46:55;8.80;99.90
22680;DHT22;11507;44.858;10.374;2023-12-29T01:49:22;8.80;99.90
22680;DHT22;11507;44.858;10.374;2023-12-29T01:51:54;8.80;99.90
22680;DHT22;11507;44.858;10.374;2023-12-29T01:54:20;8.80;99.90
22680;DHT22;11507;44.858;10.374;2023-12-29T01:56:48;8.80;99.90
22680;DHT22;11507;44.858;10.374;2023-12-29T01:59:15;8.80;99.90
22680;DHT22;11507;44.858;10.374;2023-12-29T02:01:41;8.80;99.90
22680;DHT22;11507;44.858;10.374;2023-12-29T02:04:07;8.70;99.90
22680;DHT22;11507;44.858;10.374;2023-12-29T02:06:34;8.70;99.90
22680;DHT22;11507;44.858;10.374;2023-12-29T02:09:01;8.80;99.90
22680;DHT22;11507;44.858;10.374;2023-12-29T02:11:27;8.70;99.90
22680;DHT22;11507;44.858;10.374;2023-12-29T02:13:53;8.70;99.90
22680;DHT22;11507;44.858;10.374;2023-12-29T02:16:25;8.70;99.90
22680;DHT22;11507;44.858;10.374;2023-12-29T02:18:52;8.70;99.90
22680;DHT22;11507;44.858;10.374;2023-12-29T02:21:23;8.70;99.90
22680;DHT22;11507;44.858;10.374;2023-12-29T02:23:50;8.70;99.90
22680;DHT22;11507;44.858;10.374;2023-12-29T02:26:16;8.70;99.90
22680;DHT22;11507;44.858;10.374;2023-12-29T02:28:47;8.70;99.90
22680;DHT22;11507;44.858;10.374;2023-12-29T02:31:15;8.70;99.90
22680;DHT22;11507;44.858;10.374;2023-12-29T02:33:42;8.70;99.90
22680;DHT22;11507;44.858;10.374;2023-12-29T02:36:08;8.60;99.90
22680;DHT22;11507;44.858;10.374;2023-12-29T02:38:36;8.60;99.90
22680;DHT22;11507;44.858;10.374;2023-12-29T02:41:02;8.60;99.90
22680;DHT22;11507;44.858;10.374;2023-12-29T02:43:28;8.70;99.90
22680;DHT22;11507;44.858;10.374;2023-12-29T02:45:56;8.60;99.90
22680;DHT22;11507;44.858;10.374;2023-12-29T02:48:22;8.60;99.90
22680;DHT22;11507;44.858;10.374;2023-12-29T02:50:48;8.60;99.90
22680;DHT22;11507;44.858;10.374;2023-12-29T02:53:14;8.70;99.90
22680;DHT22;11507;44.858;10.374;2023-12-29T02:55:40;8.70;99.90
22680;DHT22;11507;44.858;10.374;2023-12-29T02:58:06;8.60;99.90
22680;DHT22;11507;44.858;10.374;2023-12-29T03:00:31;8.60;99.90
22680;DHT22;11507;44.858;10.374;2023-12-29T03:02:57;8.60;99.90
22680;DHT22;11507;44.858;10.374;2023-12-29T03:05:24;8.60;99.90
22680;DHT22;11507;44.858;10.374;2023-12-29T03:07:50;8.60;99.90
22680;DHT22;11507;44.858;10.374;2023-12-29T03:10:17;8.60;99.90
22680;DHT22;11507;44.858;10.374;2023-12-29T03:12:43;8.70;99.90
22680;DHT22;11507;44.858;10.374;2023-12-29T03:15:09;8.70;99.90
22680;DHT22;11507;44.858;10.374;2023-12-29T03:17:35;8.70;99.90
22680;DHT22;11507;44.858;10.374;2023-12-29T03:20:01;8.70;99.90
22680;DHT22;11507;44.858;10.374;2023-12-29T03:22:27;8.70;99.90
22680;DHT22;11507;44.858;10.374;2023-12-29T03:24:53;8.70;99.90
22680;DHT22;11507;44.858;10.374;2023-12-29T03:27:19;8.70;99.90
22680;DHT22;11507;44.858;10.374;2023-12-29T03:29:45;8.70;99.90
22680;DHT22;11507;44.858;10.374;2023-12-29T03:32:11;8.60;99.90
22680;DHT22;11507;44.858;10.374;2023-12-29T03:34:38;8.60;99.90
22680;DHT22;11507;44.858;10.374;2023-12-29T03:37:03;8.70;99.90
22680;DHT22;11507;44.858;10.374;2023-12-29T03:39:29;8.60;99.90
22680;DHT22;11507;44.858;10.374;2023-12-29T03:41:55;8.60;99.90
22680;DHT22;11507;44.858;10.374;2023-12-29T03:44:22;8.70;99.90
22680;DHT22;11507;44.858;10.374;2023-12-29T03:46:49;8.70;99.90
22680;DHT22;11507;44.858;10.374;2023-12-29T03:49:16;8.80;99.90
22680;DHT22;11507;44.858;10.374;2023-12-29T03:51:42;8.90;99.90
22680;DHT22;11507;44.858;10.374;2023-12-29T03:54:08;8.90;99.90
22680;DHT22;11507;44.858;10.374;2023-12-29T03:56:34;9.00;99.90
22680;DHT22;11507;44.858;10.374;2023-12-29T03:59:01;9.00;99.90
22680;DHT22;11507;44.858;10.374;2023-12-29T04:01:27;9.10;99.90
22680;DHT22;11507;44.858;10.374;2023-12-29T04:03:53;9.10;99.90
22680;DHT22;11507;44.858;10.374;2023-12-29T04:06:19;9.10;99.90
22680;DHT22;11507;44.858;10.374;2023-12-29T04:08:46;9.10;99.90
22680;DHT22;11507;44.858;10.374;2023-12-29T04:11:11;9.00;99.90
22680;DHT22;11507;44.858;10.374;2023-12-29T04:13:38;9.00;99.90
22680;DHT22;11507;44.858;10.374;2023-12-29T04:16:04;9.00;99.90
22680;DHT22;11507;44.858;10.374;2023-12-29T04:18:30;9.00;99.90
22680;DHT22;11507;44.858;10.374;2023-12-29T04:20:55;9.00;99.90
22680;DHT22;11507;44.858;10.374;2023-12-29T04:23:21;8.90;99.90
22680;DHT22;11507;44.858;10.374;2023-12-29T04:25:47;8.90;99.90
22680;DHT22;11507;44.858;10.374;2023-12-29T04:28:13;8.90;99.90
22680;DHT22;11507;44.858;10.374;2023-12-29T04:30:39;8.90;99.90
22680;DHT22;11507;44.858;10.374;2023-12-29T04:33:06;8.90;99.90
22680;DHT22;11507;44.858;10.374;2023-12-29T04:35:32;8.90;99.90
22680;DHT22;11507;44.858;10.374;2023-12-29T04:37:58;9.00;99.90
22680;DHT22;11507;44.858;10.374;2023-12-29T04:40:24;9.00;99.90
22680;DHT22;11507;44.858;10.374;2023-12-29T04:42:50;8.90;99.90
22680;DHT22;11507;44.858;10.374;2023-12-29T04:45:16;8.90;99.90
22680;DHT22;11507;44.858;10.374;2023-12-29T04:47:42;8.90;99.90
22680;DHT22;11507;44.858;10.374;2023-12-29T04:50:08;8.80;99.90
22680;DHT22;11507;44.858;10.374;2023-12-29T04:52:34;8.80;99.90
22680;DHT22;11507;44.858;10.374;2023-12-29T04:55:00;8.80;99.90
22680;DHT22;11507;44.858;10.374;2023-12-29T04:57:26;8.70;99.90
22680;DHT22;11507;44.858;10.374;2023-12-29T04:59:52;8.70;99.90
22680;DHT22;11507;44.858;10.374;2023-12-29T05:02:17;8.70;99.90
22680;DHT22;11507;44.858;10.374;2023-12-29T05:04:45;8.70;99.90
22680;DHT22;11507;44.858;10.374;2023-12-29T05:07:12;8.70;99.90
22680;DHT22;11507;44.858;10.374;2023-12-29T05:09:38;8.60;99.90
22680;DHT22;11507;44.858;10.374;2023-12-29T05:12:04;8.60;99.90
22680;DHT22;11507;44.858;10.374;2023-12-29T05:14:30;8.60;99.90
22680;DHT22;11507;44.858;10.374;2023-12-29T05:16:56;8.60;99.90
22680;DHT22;11507;44.858;10.374;2023-12-29T05:19:22;8.50;99.90
22680;DHT22;11507;44.858;10.374;2023-12-29T05:21:47;8.50;99.90
22680;DHT22;11507;44.858;10.374;2023-12-29T05:24:16;8.50;99.90
22680;DHT22;11507;44.858;10.374;2023-12-29T05:26:42;8.40;99.90
22680;DHT22;11507;44.858;10.374;2023-12-29T05:29:08;8.40;99.90
22680;DHT22;11507;44.858;10.374;2023-12-29T05:31:34;8.40;99.90
22680;DHT22;11507;44.858;10.374;2023-12-29T05:34:00;8.30;99.90
22680;DHT22;11507;44.858;10.374;2023-12-29T05:36:26;8.30;99.90
22680;DHT22;11507;44.858;10.374;2023-12-29T05:38:52;8.30;99.90
22680;DHT22;11507;44.858;10.374;2023-12-29T05:41:18;8.30;99.90
22680;DHT22;11507;44.858;10.374;2023-12-29T05:43:44;8.30;99.90
22680;DHT22;11507;44.858;10.374;2023-12-29T05:46:10;8.30;99.90
22680;DHT22;11507;44.858;10.374;2023-12-29T05:48:39;8.20;99.90
22680;DHT22;11507;44.858;10.374;2023-12-29T05:51:07;8.20;99.90
22680;DHT22;11507;44.858;10.374;2023-12-29T05:53:33;8.20;99.90
22680;DHT22;11507;44.858;10.374;2023-12-29T05:55:59;8.20;99.90
22680;DHT22;11507;44.858;10.374;2023-12-29T05:58:25;8.20;99.90
22680;DHT22;11507;44.858;10.374;2023-12-29T06:00:51;8.20;99.90
22680;DHT22;11507;44.858;10.374;2023-12-29T06:03:16;8.20;99.90
22680;DHT22;11507;44.858;10.374;2023-12-29T06:05:42;8.20;99.90
22680;DHT22;11507;44.858;10.374;2023-12-29T06:08:08;8.10;99.90
22680;DHT22;11507;44.858;10.374;2023-12-29T06:10:35;8.10;99.90
22680;DHT22;11507;44.858;10.374;2023-12-29T06:13:02;8.10;99.90
22680;DHT22;11507;44.858;10.374;2023-12-29T06:15:28;8.10;99.90
22680;DHT22;11507;44.858;10.374;2023-12-29T06:17:54;8.10;99.90
22680;DHT22;11507;44.858;10.374;2023-12-29T06:20:20;8.10;99.90
22680;DHT22;11507;44.858;10.374;2023-12-29T06:22:46;8.10;99.90
22680;DHT22;11507;44.858;10.374;2023-12-29T06:25:12;8.10;99.90
22680;DHT22;11507;44.858;10.374;2023-12-29T06:27:39;8.10;99.90
22680;DHT22;11507;44.858;10.374;2023-12-29T06:30:09;8.10;99.90
22680;DHT22;11507;44.858;10.374;2023-12-29T06:32:36;8.10;99.90
22680;DHT22;11507;44.858;10.374;2023-12-29T06:35:02;8.10;99.90
22680;DHT22;11507;44.858;10.374;2023-12-29T06:37:29;8.10;99.90
22680;DHT22;11507;44.858;10.374;2023-12-29T06:39:55;8.00;99.90
22680;DHT22;11507;44.858;10.374;2023-12-29T06:42:21;8.00;99.90
22680;DHT22;11507;44.858;10.374;2023-12-29T06:44:48;8.00;99.90
22680;DHT22;11507;44.858;10.374;2023-12-29T06:47:14;7.90;99.90
22680;DHT22;11507;44.858;10.374;2023-12-29T06:49:40;7.90;99.90
22680;DHT22;11507;44.858;10.374;2023-12-29T06:52:06;7.80;99.90
22680;DHT22;11507;44.858;10.374;2023-12-29T06:54:35;7.80;99.90
22680;DHT22;11507;44.858;10.374;2023-12-29T06:57:01;7.70;99.90
22680;DHT22;11507;44.858;10.374;2023-12-29T06:59:27;7.70;99.90
22680;DHT22;11507;44.858;10.374;2023-12-29T07:01:53;7.70;99.90
22680;DHT22;11507;44.858;10.374;2023-12-29T07:04:19;7.70;99.90
22680;DHT22;11507;44.858;10.374;2023-12-29T07:06:45;7.70;99.90
22680;DHT22;11507;44.858;10.374;2023-12-29T07:09:11;7.80;99.90
22680;DHT22;11507;44.858;10.374;2023-12-29T07:11:37;7.80;99.90
22680;DHT22;11507;44.858;10.374;2023-12-29T07:14:03;7.80;99.90
22680;DHT22;11507;44.858;10.374;2023-12-29T07:16:29;7.80;99.90
22680;DHT22;11507;44.858;10.374;2023-12-29T07:18:55;7.80;99.90
22680;DHT22;11507;44.858;10.374;2023-12-29T07:21:21;7.90;99.90
22680;DHT22;11507;44.858;10.374;2023-12-29T07:23:47;7.90;99.90
22680;DHT22;11507;44.858;10.374;2023-12-29T07:26:16;8.00;99.90
22680;DHT22;11507;44.858;10.374;2023-12-29T07:28:42;8.10;99.90
22680;DHT22;11507;44.858;10.374;2023-12-29T07:31:08;8.10;99.90
22680;DHT22;11507;44.858;10.374;2023-12-29T07:33:34;8.20;99.90
22680;DHT22;11507;44.858;10.374;2023-12-29T07:36:00;8.30;99.90
22680;DHT22;11507;44.858;10.374;2023-12-29T07:38:26;8.40;99.90
22680;DHT22;11507;44.858;10.374;2023-12-29T07:40:52;8.40;99.90
22680;DHT22;11507;44.858;10.374;2023-12-29T07:43:18;8.50;99.90
22680;DHT22;11507;44.858;10.374;2023-12-29T07:45:44;8.60;99.90
22680;DHT22;11507;44.858;10.374;2023-12-29T07:48:10;8.70;99.90
22680;DHT22;11507;44.858;10.374;2023-12-29T07:50:36;8.80;99.90
22680;DHT22;11507;44.858;10.374;2023-12-29T07:53:02;8.90;99.90
22680;DHT22;11507;44.858;10.374;2023-12-29T07:55:29;9.10;99.90
22680;DHT22;11507;44.858;10.374;2023-12-29T07:57:55;9.20;99.90
22680;DHT22;11507;44.858;10.374;2023-12-29T08:00:20;9.40;99.90
22680;DHT22;11507;44.858;10.374;2023-12-29T08:02:47;9.50;99.90
22680;DHT22;11507;44.858;10.374;2023-12-29T08:05:13;9.70;99.90
22680;DHT22;11507;44.858;10.374;2023-12-29T08:07:41;9.80;99.90
22680;DHT22;11507;44.858;10.374;2023-12-29T08:10:07;9.90;99.90
22680;DHT22;11507;44.858;10.374;2023-12-29T08:12:33;9.90;99.90
22680;DHT22;11507;44.858;10.374;2023-12-29T08:14:59;9.90;99.90
22680;DHT22;11507;44.858;10.374;2023-12-29T08:17:25;9.90;99.90
22680;DHT22;11507;44.858;10.374;2023-12-29T08:19:51;9.90;99.90
22680;DHT22;11507;44.858;10.374;2023-12-29T08:22:19;9.90;99.90
22680;DHT22;11507;44.858;10.374;2023-12-29T08:24:44;9.90;99.90
22680;DHT22;11507;44.858;10.374;2023-12-29T08:27:14;9.90;99.90
22680;DHT22;11507;44.858;10.374;2023-12-29T08:29:40;9.90;99.90
22680;DHT22;11507;44.858;10.374;2023-12-29T08:32:07;9.90;99.90
22680;DHT22;11507;44.858;10.374;2023-12-29T08:34:32;9.90;99.90
22680;DHT22;11507;44.858;10.374;2023-12-29T08:37:00;9.90;99.90
22680;DHT22;11507;44.858;10.374;2023-12-29T08:39:26;9.80;99.90
22680;DHT22;11507;44.858;10.374;2023-12-29T08:41:52;9.90;99.90
22680;DHT22;11507;44.858;10.374;2023-12-29T08:44:17;9.90;99.90
22680;DHT22;11507;44.858;10.374;2023-12-29T08:46:44;9.90;99.90
22680;DHT22;11507;44.858;10.374;2023-12-29T08:49:10;9.90;99.90
22680;DHT22;11507;44.858;10.374;2023-12-29T08:51:36;9.90;99.90
22680;DHT22;11507;44.858;10.374;2023-12-29T08:54:02;9.90;99.90
22680;DHT22;11507;44.858;10.374;2023-12-29T08:56:28;9.90;99.90
22680;DHT22;11507;44.858;10.374;2023-12-29T08:58:54;9.90;99.90
22680;DHT22;11507;44.858;10.374;2023-12-29T09:01:20;10.00;99.90
22680;DHT22;11507;44.858;10.374;2023-12-29T09:03:46;10.00;99.90
22680;DHT22;11507;44.858;10.374;2023-12-29T09:06:12;10.00;99.90
22680;DHT22;11507;44.858;10.374;2023-12-29T09:08:39;10.10;99.90
22680;DHT22;11507;44.858;10.374;2023-12-29T09:11:05;10.10;99.90
22680;DHT22;11507;44.858;10.374;2023-12-29T09:13:31;10.10;99.90
22680;DHT22;11507;44.858;10.374;2023-12-29T09:15:58;10.10;99.90
22680;DHT22;11507;44.858;10.374;2023-12-29T09:18:24;10.20;99.90
22680;DHT22;11507;44.858;10.374;2023-12-29T09:20:50;10.10;99.90
22680;DHT22;11507;44.858;10.374;2023-12-29T09:23:16;10.10;99.90
22680;DHT22;11507;44.858;10.374;2023-12-29T09:25:42;10.20;99.90
22680;DHT22;11507;44.858;10.374;2023-12-29T09:28:08;10.20;99.90
22680;DHT22;11507;44.858;10.374;2023-12-29T09:30:34;10.20;99.90
22680;DHT22;11507;44.858;10.374;2023-12-29T09:33:00;10.20;99.90
22680;DHT22;11507;44.858;10.374;2023-12-29T09:35:26;10.20;99.90
22680;DHT22;11507;44.858;10.374;2023-12-29T09:37:52;10.30;99.90
22680;DHT22;11507;44.858;10.374;2023-12-29T09:40:18;10.30;99.90
22680;DHT22;11507;44.858;10.374;2023-12-29T09:42:44;10.30;99.90
22680;DHT22;11507;44.858;10.374;2023-12-29T09:45:11;10.30;99.90
22680;DHT22;11507;44.858;10.374;2023-12-29T09:47:38;10.40;99.90
22680;DHT22;11507;44.858;10.374;2023-12-29T09:50:05;10.40;99.90
22680;DHT22;11507;44.858;10.374;2023-12-29T09:52:31;10.40;99.90
22680;DHT22;11507;44.858;10.374;2023-12-29T09:54:57;10.40;99.90
22680;DHT22;11507;44.858;10.374;2023-12-29T09:57:23;10.40;99.90
22680;DHT22;11507;44.858;10.374;2023-12-29T09:59:50;10.40;99.90
22680;DHT22;11507;44.858;10.374;2023-12-29T10:02:20;10.40;99.90
22680;DHT22;11507;44.858;10.374;2023-12-29T10:04:47;10.40;99.90
22680;DHT22;11507;44.858;10.374;2023-12-29T10:07:15;10.40;99.90
22680;DHT22;11507;44.858;10.374;2023-12-29T10:09:46;10.30;99.90
22680;DHT22;11507;44.858;10.374;2023-12-29T10:12:14;10.30;99.90
22680;DHT22;11507;44.858;10.374;2023-12-29T10:14:48;10.30;99.90
22680;DHT22;11507;44.858;10.374;2023-12-29T10:17:26;10.30;99.90
22680;DHT22;11507;44.858;10.374;2023-12-29T10:20:18;10.30;99.90
22680;DHT22;11507;44.858;10.374;2023-12-29T10:22:45;10.40;99.90
22680;DHT22;11507;44.858;10.374;2023-12-29T10:25:14;10.40;99.90
22680;DHT22;11507;44.858;10.374;2023-12-29T10:27:40;10.40;99.90
22680;DHT22;11507;44.858;10.374;2023-12-29T10:30:07;10.40;99.90
22680;DHT22;11507;44.858;10.374;2023-12-29T10:32:35;10.50;99.90
22680;DHT22;11507;44.858;10.374;2023-12-29T10:35:10;10.50;99.90
22680;DHT22;11507;44.858;10.374;2023-12-29T10:37:39;10.60;99.90
22680;DHT22;11507;44.858;10.374;2023-12-29T10:40:05;10.60;99.90
22680;DHT22;11507;44.858;10.374;2023-12-29T10:42:32;10.60;99.90
22680;DHT22;11507;44.858;10.374;2023-12-29T10:45:09;10.50;99.90
22680;DHT22;11507;44.858;10.374;2023-12-29T10:47:35;10.50;99.90
22680;DHT22;11507;44.858;10.374;2023-12-29T10:50:04;10.60;99.90
22680;DHT22;11507;44.858;10.374;2023-12-29T10:52:31;10.60;99.90
22680;DHT22;11507;44.858;10.374;2023-12-29T10:57:33;10.70;99.90
22680;DHT22;11507;44.858;10.374;2023-12-29T10:59:59;10.70;99.90
22680;DHT22;11507;44.858;10.374;2023-12-29T11:02:29;10.70;99.90
22680;DHT22;11507;44.858;10.374;2023-12-29T11:05:04;10.70;99.90
22680;DHT22;11507;44.858;10.374;2023-12-29T11:07:35;10.70;99.90
22680;DHT22;11507;44.858;10.374;2023-12-29T11:10:02;10.70;99.90
22680;DHT22;11507;44.858;10.374;2023-12-29T11:12:29;10.70;99.90
22680;DHT22;11507;44.858;10.374;2023-12-29T11:14:56;10.80;99.90
22680;DHT22;11507;44.858;10.374;2023-12-29T11:17:22;10.70;99.90
22680;DHT22;11507;44.858;10.374;2023-12-29T11:19:48;10.70;99.90
22680;DHT22;11507;44.858;10.374;2023-12-29T11:22:16;10.70;99.90
22680;DHT22;11507;44.858;10.374;2023-12-29T11:24:45;10.60;99.90
22680;DHT22;11507;44.858;10.374;2023-12-29T11:27:11;10.60;99.90
22680;DHT22;11507;44.858;10.374;2023-12-29T11:29:38;10.60;99.90
22680;DHT22;11507;44.858;10.374;2023-12-29T11:32:06;10.60;99.90
22680;DHT22;11507;44.858;10.374;2023-12-29T11:34:59;10.50;99.90
22680;DHT22;11507;44.858;10.374;2023-12-29T11:40:02;10.40;99.90
22680;DHT22;11507;44.858;10.374;2023-12-29T11:42:31;10.40;99.90
22680;DHT22;11507;44.858;10.374;2023-12-29T11:44:59;10.40;99.90
22680;DHT22;11507;44.858;10.374;2023-12-29T11:47:44;10.40;99.90
22680;DHT22;11507;44.858;10.374;2023-12-29T11:50:10;10.40;99.90
22680;DHT22;11507;44.858;10.374;2023-12-29T11:52:39;10.40;99.90
22680;DHT22;11507;44.858;10.374;2023-12-29T11:57:35;10.40;99.90
22680;DHT22;11507;44.858;10.374;2023-12-29T12:00:02;10.30;99.90
22680;DHT22;11507;44.858;10.374;2023-12-29T12:02:37;10.40;99.90
22680;DHT22;11507;44.858;10.374;2023-12-29T12:05:03;10.30;99.90
22680;DHT22;11507;44.858;10.374;2023-12-29T12:12:40;10.40;99.90
22680;DHT22;11507;44.858;10.374;2023-12-29T12:17:51;10.40;99.90
22680;DHT22;11507;44.858;10.374;2023-12-29T12:20:17;10.30;99.90
22680;DHT22;11507;44.858;10.374;2023-12-29T12:22:43;10.40;99.90
22680;DHT22;11507;44.858;10.374;2023-12-29T12:25:11;10.40;99.90
22680;DHT22;11507;44.858;10.374;2023-12-29T12:27:38;10.40;99.90
22680;DHT22;11507;44.858;10.374;2023-12-29T12:30:04;10.40;99.90
22680;DHT22;11507;44.858;10.374;2023-12-29T12:32:30;10.40;99.90
22680;DHT22;11507;44.858;10.374;2023-12-29T12:34:56;10.40;99.90
22680;DHT22;11507;44.858;10.374;2023-12-29T12:37:23;10.40;99.90
22680;DHT22;11507;44.858;10.374;2023-12-29T12:39:49;10.40;99.90
22680;DHT22;11507;44.858;10.374;2023-12-29T12:42:16;10.40;99.90
22680;DHT22;11507;44.858;10.374;2023-12-29T12:44:54;10.40;99.90
22680;DHT22;11507;44.858;10.374;2023-12-29T12:47:30;10.30;99.90
22680;DHT22;11507;44.858;10.374;2023-12-29T12:49:58;10.30;99.90
22680;DHT22;11507;44.858;10.374;2023-12-29T12:52:24;10.30;99.90
22680;DHT22;11507;44.858;10.374;2023-12-29T12:54:50;10.30;99.90
22680;DHT22;11507;44.858;10.374;2023-12-29T12:57:19;10.20;99.90
22680;DHT22;11507;44.858;10.374;2023-12-29T12:59:46;10.30;99.90
22680;DHT22;11507;44.858;10.374;2023-12-29T13:02:12;10.30;99.90
22680;DHT22;11507;44.858;10.374;2023-12-29T13:04:41;10.40;99.90
22680;DHT22;11507;44.858;10.374;2023-12-29T13:07:08;10.30;99.90
22680;DHT22;11507;44.858;10.374;2023-12-29T13:09:35;10.40;99.90
22680;DHT22;11507;44.858;10.374;2023-12-29T13:12:08;10.40;99.90
22680;DHT22;11507;44.858;10.374;2023-12-29T13:14:34;10.40;99.90
22680;DHT22;11507;44.858;10.374;2023-12-29T13:17:04;10.50;99.90
22680;DHT22;11507;44.858;10.374;2023-12-29T13:19:30;10.50;99.90
22680;DHT22;11507;44.858;10.374;2023-12-29T13:21:56;10.60;99.90
22680;DHT22;11507;44.858;10.374;2023-12-29T13:24:22;10.60;99.90
22680;DHT22;11507;44.858;10.374;2023-12-29T13:26:50;10.50;99.90
22680;DHT22;11507;44.858;10.374;2023-12-29T13:29:18;10.50;99.90
22680;DHT22;11507;44.858;10.374;2023-12-29T13:31:46;10.50;99.90
22680;DHT22;11507;44.858;10.374;2023-12-29T13:34:12;10.50;99.90
22680;DHT22;11507;44.858;10.374;2023-12-29T13:36:51;10.50;99.90
22680;DHT22;11507;44.858;10.374;2023-12-29T13:39:38;10.50;99.90
22680;DHT22;11507;44.858;10.374;2023-12-29T13:42:07;10.50;99.90
22680;DHT22;11507;44.858;10.374;2023-12-29T13:44:34;10.40;99.90
22680;DHT22;11507;44.858;10.374;2023-12-29T13:47:01;10.40;99.90
22680;DHT22;11507;44.858;10.374;2023-12-29T13:49:28;10.40;99.90
22680;DHT22;11507;44.858;10.374;2023-12-29T13:51:54;10.30;99.90
22680;DHT22;11507;44.858;10.374;2023-12-29T13:54:20;10.30;99.90
22680;DHT22;11507;44.858;10.374;2023-12-29T13:56:51;10.30;99.90
22680;DHT22;11507;44.858;10.374;2023-12-29T13:59:17;10.30;99.90
22680;DHT22;11507;44.858;10.374;2023-12-29T14:01:43;10.30;99.90
22680;DHT22;11507;44.858;10.374;2023-12-29T14:04:10;10.30;99.90
22680;DHT22;11507;44.858;10.374;2023-12-29T14:09:03;10.30;99.90
22680;DHT22;11507;44.858;10.374;2023-12-29T14:11:29;10.40;99.90
22680;DHT22;11507;44.858;10.374;2023-12-29T14:13:56;10.40;99.90
22680;DHT22;11507;44.858;10.374;2023-12-29T14:16:22;10.40;99.90
22680;DHT22;11507;44.858;10.374;2023-12-29T14:21:27;10.40;99.90
22680;DHT22;11507;44.858;10.374;2023-12-29T14:26:31;10.40;99.90
22680;DHT22;11507;44.858;10.374;2023-12-29T14:29:05;10.40;99.90
22680;DHT22;11507;44.858;10.374;2023-12-29T14:31:31;10.30;99.90
22680;DHT22;11507;44.858;10.374;2023-12-29T14:33:58;10.30;99.90
22680;DHT22;11507;44.858;10.374;2023-12-29T14:36:24;10.20;99.90
22680;DHT22;11507;44.858;10.374;2023-12-29T14:38:50;10.20;99.90
22680;DHT22;11507;44.858;10.374;2023-12-29T14:41:16;10.20;99.90
22680;DHT22;11507;44.858;10.374;2023-12-29T14:43:42;10.10;99.90
22680;DHT22;11507;44.858;10.374;2023-12-29T14:46:08;10.10;99.90
22680;DHT22;11507;44.858;10.374;2023-12-29T14:48:34;10.10;99.90
22680;DHT22;11507;44.858;10.374;2023-12-29T14:51:00;10.10;99.90
22680;DHT22;11507;44.858;10.374;2023-12-29T14:53:25;10.10;99.90
22680;DHT22;11507;44.858;10.374;2023-12-29T14:55:51;10.10;99.90
22680;DHT22;11507;44.858;10.374;2023-12-29T14:58:17;10.10;99.90
22680;DHT22;11507;44.858;10.374;2023-12-29T15:00:44;10.00;99.90
22680;DHT22;11507;44.858;10.374;2023-12-29T15:03:12;10.00;99.90
22680;DHT22;11507;44.858;10.374;2023-12-29T15:05:40;10.00;99.90
22680;DHT22;11507;44.858;10.374;2023-12-29T15:08:06;10.00;99.90
22680;DHT22;11507;44.858;10.374;2023-12-29T15:10:33;9.90;99.90
22680;DHT22;11507;44.858;10.374;2023-12-29T15:12:59;9.90;99.90
22680;DHT22;11507;44.858;10.374;2023-12-29T15:15:25;9.90;99.90
22680;DHT22;11507;44.858;10.374;2023-12-29T15:17:51;9.80;99.90
22680;DHT22;11507;44.858;10.374;2023-12-29T15:20:17;9.80;99.90
22680;DHT22;11507;44.858;10.374;2023-12-29T15:22:43;9.80;99.90
22680;DHT22;11507;44.858;10.374;2023-12-29T15:25:09;9.80;99.90
22680;DHT22;11507;44.858;10.374;2023-12-29T15:27:35;9.80;99.90
22680;DHT22;11507;44.858;10.374;2023-12-29T15:30:01;9.80;99.90
22680;DHT22;11507;44.858;10.374;2023-12-29T15:32:26;9.80;99.90
22680;DHT22;11507;44.858;10.374;2023-12-29T15:34:52;9.70;99.90
22680;DHT22;11507;44.858;10.374;2023-12-29T15:37:18;9.80;99.90
22680;DHT22;11507;44.858;10.374;2023-12-29T15:39:45;9.70;99.90
22680;DHT22;11507;44.858;10.374;2023-12-29T15:42:11;9.70;99.90
22680;DHT22;11507;44.858;10.374;2023-12-29T15:44:36;9.70;99.90
22680;DHT22;11507;44.858;10.374;2023-12-29T15:47:02;9.70;99.90